Seward, AK

8:24 AM AKDT on July 30, 2016 (GMT -0800)
Seward | | Change Station

Elev 20 ft 60.13 °N, 149.42 °W | Updated 31 minutes ago

Overcast
Overcast
56 °F
Feels Like 56 °F
N
0
Wind Variable Wind from North

Today
High -- | Low -- °F
--% Chance of Precip.
Yesterday
High -- | Low -- °F
Precip. -- in
Pressure 30.11 in
Visibility 6.0 miles
Clouds Overcast 900 ft
Dew Point 55 °F
Humidity 97%
Rainfall 0.04 in
Snow Depth Not available.
5:34 AM 10:31 PM
Waning Crescent, 12% visible
METAR PAWD 301553Z AUTO 00000KT 6SM BR OVC009 13/13 A3011 RMK AO2 SLP195 T01330128 TSNO
Pressure 30.11 in
Visibility 6.0 miles
Clouds Overcast 900 ft
Dew Point 55 °F
Humidity 97%
Rainfall 0.04 in
Snow Depth Not available.
5:34 AM 10:31 PM
Waning Crescent, 12% visible
METAR PAWD 301553Z AUTO 00000KT 6SM BR OVC009 13/13 A3011 RMK AO2 SLP195 T01330128 TSNO

10-Day Weather Forecast

Almanac

Astronomy

Jul. 30, 2016 Rise Set
Actual Time
Civil Twilight
Nautical Twilight
Astronomical Twilight
Moon
Length of Visible Light
Length of Day
Tomorrow will be .
, % of the Moon is Illuminated

Today's Extremes

State Highs State Lows

Community

WunderPhotos

Upload Photos

1,928,592 photos uploaded!

WunderBlog® & News

Nearby

Air Quality

  Air Quality AQ Index Pollutant
Not available.

Snow Depth

Station Depth Elevation

Earthquake Activity

City Distance Mag. Time & Date
Minimum magnitude displayed is 2.5.

Coastal Water Temperatures

Place Temperature

Stations

Nearby Weather Stations

Station Location Temp. Windchill Dew Point Humidity Wind Precip. Elev Updated Type
                   

Watches & Warnings

There are currently no watches in effect.